createdAt,value
2022-10-24T00:02:20.292Z,96.60
2022-10-24T00:05:22.098Z,96.56
2022-10-24T00:08:23.920Z,96.60
2022-10-24T00:11:28.126Z,96.66
2022-10-24T00:14:30.871Z,96.63
2022-10-24T00:17:33.124Z,96.52
2022-10-24T00:20:37.267Z,96.47
2022-10-24T00:23:39.206Z,96.46
2022-10-24T00:26:41.063Z,96.53
2022-10-24T00:29:43.148Z,96.62
2022-10-24T00:32:45.051Z,96.64
2022-10-24T00:35:47.159Z,96.50
2022-10-24T00:38:50.292Z,96.87
2022-10-24T00:41:54.370Z,96.79
2022-10-24T00:44:56.174Z,96.60
2022-10-24T00:47:57.906Z,96.81
2022-10-24T00:51:11.700Z,96.90
2022-10-24T00:54:14.065Z,96.94
2022-10-24T00:57:26.436Z,96.99
2022-10-24T01:00:30.803Z,96.98
2022-10-24T01:03:32.977Z,97.09
2022-10-24T01:07:04.465Z,97.19
2022-10-24T01:13:49.971Z,97.05
2022-10-24T01:16:56.792Z,97.07
2022-10-24T01:20:40.499Z,97.14
2022-10-24T01:23:49.656Z,97.20
2022-10-24T01:27:22.606Z,97.14
2022-10-24T01:30:24.967Z,97.28
2022-10-24T01:33:31.857Z,97.32
2022-10-24T01:36:39.370Z,97.45
2022-10-24T01:39:46.701Z,97.38
2022-10-24T01:42:49.862Z,97.48
2022-10-24T01:45:56.962Z,97.55
2022-10-24T01:49:12.809Z,97.71
2022-10-24T01:52:16.577Z,97.54
2022-10-24T01:55:18.517Z,97.71
2022-10-24T01:58:21.496Z,97.81
2022-10-24T02:01:24.739Z,97.79
2022-10-24T02:04:28.927Z,98.04
2022-10-24T02:07:32.414Z,98.07
2022-10-24T02:10:45.765Z,98.26
2022-10-24T02:13:58.374Z,98.31
2022-10-24T02:17:01.328Z,98.10
2022-10-24T02:20:04.334Z,97.89
2022-10-24T02:23:16.239Z,97.40
2022-10-24T02:26:29.225Z,96.93
2022-10-24T02:29:43.739Z,97.03
2022-10-24T02:32:49.135Z,97.27
2022-10-24T02:35:52.766Z,97.27
2022-10-24T02:38:56.298Z,97.47
2022-10-24T02:41:59.562Z,97.20
2022-10-24T02:45:02.461Z,96.91
2022-10-24T02:48:10.741Z,96.85
2022-10-24T02:51:14.525Z,97.17
2022-10-24T02:54:16.297Z,97.46
2022-10-24T02:57:19.143Z,97.77
2022-10-24T03:00:21.197Z,97.80
2022-10-24T03:03:22.991Z,98.16
2022-10-24T03:06:24.960Z,98.23
2022-10-24T03:09:26.799Z,98.12
2022-10-24T03:12:28.609Z,98.29
2022-10-24T03:15:30.699Z,98.39
2022-10-24T03:18:32.657Z,98.44
2022-10-24T03:21:34.407Z,98.36
2022-10-24T03:24:43.727Z,98.38
2022-10-24T03:27:46.660Z,98.67
2022-10-24T03:30:48.802Z,98.69
2022-10-24T03:33:50.711Z,98.79
2022-10-24T03:36:52.445Z,98.58
2022-10-24T03:39:54.156Z,98.34
2022-10-24T03:42:55.970Z,97.83
2022-10-24T03:45:57.716Z,97.67
2022-10-24T03:48:59.651Z,97.71
2022-10-24T03:52:01.506Z,98.06
2022-10-24T03:55:03.614Z,98.32
2022-10-24T03:58:05.495Z,98.35
2022-10-24T04:01:09.814Z,98.33
2022-10-24T04:04:11.717Z,98.36
2022-10-24T04:07:13.566Z,98.36
2022-10-24T04:10:15.378Z,98.09
2022-10-24T04:13:17.148Z,97.17
2022-10-24T04:16:20.191Z,96.32
2022-10-24T04:19:22.115Z,96.67
2022-10-24T04:22:24.048Z,97.71
2022-10-24T04:25:26.047Z,98.28
2022-10-24T04:28:30.172Z,98.01
2022-10-24T04:31:32.237Z,98.45
2022-10-24T04:34:36.290Z,98.32
2022-10-24T04:37:38.207Z,98.35
2022-10-24T04:40:39.887Z,98.24
2022-10-24T04:43:41.546Z,98.19
2022-10-24T04:46:44.101Z,98.38
2022-10-24T04:49:47.150Z,98.34
2022-10-24T04:52:48.906Z,99.03
2022-10-24T04:55:50.533Z,99.72
2022-10-24T04:58:52.643Z,99.64
2022-10-24T05:01:55.191Z,99.46
2022-10-24T05:04:57.131Z,99.90
2022-10-24T05:07:58.873Z,99.95
2022-10-24T05:11:00.825Z,99.94
2022-10-24T05:14:02.630Z,99.67
2022-10-24T05:17:04.522Z,99.94
2022-10-24T05:20:07.509Z,99.77
2022-10-24T05:23:09.613Z,99.74
2022-10-24T05:26:11.328Z,99.80
2022-10-24T05:29:13.105Z,99.86
2022-10-24T05:32:14.910Z,99.56
2022-10-24T05:35:17.119Z,99.73
2022-10-24T05:38:19.028Z,100.00
2022-10-24T05:41:20.884Z,100.00
2022-10-24T05:44:22.911Z,100.00
2022-10-24T05:47:26.899Z,100.00
2022-10-24T05:50:31.502Z,100.00
2022-10-24T05:53:33.323Z,100.00
2022-10-24T05:56:35.174Z,100.00
2022-10-24T05:59:37.070Z,100.00
2022-10-24T06:02:39.702Z,100.00
2022-10-24T06:05:41.764Z,100.00
2022-10-24T06:08:43.662Z,100.00
2022-10-24T06:11:45.853Z,100.00
2022-10-24T06:14:47.696Z,100.00
2022-10-24T06:17:49.540Z,100.00
2022-10-24T06:20:54.066Z,100.00
2022-10-24T06:23:57.990Z,100.00
2022-10-24T06:27:00.007Z,100.00
2022-10-24T06:30:01.870Z,100.00
2022-10-24T06:33:03.761Z,100.00
2022-10-24T06:36:08.025Z,100.00
2022-10-24T06:39:09.878Z,100.00
2022-10-24T06:42:11.802Z,100.00
2022-10-24T06:45:13.945Z,100.00
2022-10-24T06:48:15.883Z,100.00
2022-10-24T06:51:17.772Z,100.00
2022-10-24T06:54:19.491Z,100.00
2022-10-24T06:57:21.379Z,100.00
2022-10-24T07:00:23.512Z,100.00
2022-10-24T07:03:25.627Z,100.00
2022-10-24T07:06:29.842Z,100.00
2022-10-24T07:09:31.632Z,100.00
2022-10-24T07:12:33.421Z,100.00
2022-10-24T07:15:35.263Z,100.00
2022-10-24T07:18:37.160Z,100.00
2022-10-24T07:21:39.483Z,100.00
2022-10-24T07:24:41.193Z,100.00
2022-10-24T07:27:42.986Z,100.00
2022-10-24T07:30:45.747Z,100.00
2022-10-24T07:33:47.544Z,100.00
2022-10-24T07:36:49.451Z,100.00
2022-10-24T07:39:51.352Z,100.00
2022-10-24T07:42:53.107Z,100.00
2022-10-24T07:45:54.929Z,100.00
2022-10-24T07:48:56.837Z,100.00
2022-10-24T07:52:00.027Z,100.00
2022-10-24T07:55:01.762Z,100.00
2022-10-24T07:58:03.706Z,100.00
2022-10-24T08:01:07.793Z,100.00
2022-10-24T08:04:10.704Z,100.00
2022-10-24T08:07:15.691Z,100.00
2022-10-24T08:10:17.813Z,100.00
2022-10-24T08:13:19.615Z,100.00
2022-10-24T08:16:23.014Z,100.00
2022-10-24T08:22:27.620Z,100.00
2022-10-24T08:25:29.456Z,100.00
2022-10-24T08:28:31.355Z,100.00
2022-10-24T08:31:33.123Z,100.00
2022-10-24T08:34:35.300Z,99.58
2022-10-24T08:40:48.813Z,98.50
2022-10-24T08:43:52.207Z,98.78
2022-10-24T08:47:25.284Z,98.39
2022-10-24T08:50:30.430Z,97.70
2022-10-24T08:53:33.306Z,97.17
2022-10-24T08:56:35.420Z,96.65
2022-10-24T08:59:38.045Z,94.19
2022-10-24T09:02:43.477Z,93.24
2022-10-24T09:05:51.592Z,90.64
2022-10-24T09:08:56.552Z,90.49
2022-10-24T09:12:03.840Z,91.33
2022-10-24T09:15:15.705Z,91.39
2022-10-24T09:18:23.820Z,90.75
2022-10-24T09:21:26.250Z,90.71
2022-10-24T09:24:32.782Z,90.29
2022-10-24T09:27:37.333Z,87.04
2022-10-24T09:30:39.702Z,87.36
2022-10-24T09:33:42.955Z,87.76
2022-10-24T09:36:45.007Z,87.60
2022-10-24T09:39:46.991Z,88.04
2022-10-24T09:43:10.602Z,87.72
2022-10-24T09:46:16.565Z,88.28
2022-10-24T09:49:23.506Z,88.67
2022-10-24T09:52:27.771Z,88.46
2022-10-24T09:55:31.410Z,88.54
2022-10-24T09:58:34.046Z,88.87
2022-10-24T10:01:38.318Z,89.20
2022-10-24T10:04:41.550Z,89.28
2022-10-24T10:07:48.620Z,89.07
2022-10-24T10:11:09.654Z,89.53
2022-10-24T10:14:28.394Z,89.31
2022-10-24T10:17:33.361Z,89.45
2022-10-24T10:20:39.858Z,89.89
2022-10-24T10:23:49.599Z,90.13
2022-10-24T10:26:51.578Z,90.27
2022-10-24T10:30:11.792Z,90.15
2022-10-24T10:33:24.786Z,90.03
2022-10-24T10:36:54.296Z,90.20
2022-10-24T10:40:21.012Z,90.22
2022-10-24T10:43:44.035Z,90.58
2022-10-24T10:47:14.666Z,90.89
2022-10-24T10:50:25.705Z,90.77
2022-10-24T10:53:45.127Z,91.17
2022-10-24T10:56:54.793Z,91.55
2022-10-24T11:00:10.005Z,91.48
2022-10-24T11:03:31.509Z,91.63
2022-10-24T11:06:47.320Z,91.69
2022-10-24T11:09:51.496Z,91.56
2022-10-24T11:12:54.560Z,91.34
2022-10-24T11:15:59.228Z,91.09
2022-10-24T11:19:05.416Z,91.08
2022-10-24T11:22:07.527Z,91.31
2022-10-24T11:25:18.603Z,91.23
2022-10-24T11:28:45.091Z,90.95
2022-10-24T11:32:09.805Z,91.03
2022-10-24T11:35:27.349Z,91.28
2022-10-24T11:38:30.834Z,91.39
2022-10-24T11:41:38.522Z,91.56
2022-10-24T11:44:50.354Z,91.55
2022-10-24T11:48:13.520Z,91.90
2022-10-24T11:51:50.029Z,92.01
2022-10-24T11:54:58.438Z,92.16
2022-10-24T11:58:00.598Z,91.83
2022-10-24T12:01:18.161Z,91.15
2022-10-24T12:04:51.409Z,90.77
2022-10-24T12:08:04.346Z,89.88
2022-10-24T12:11:26.300Z,89.36
2022-10-24T12:14:50.044Z,89.05
2022-10-24T12:18:02.477Z,89.46
2022-10-24T12:21:26.298Z,89.87
2022-10-24T12:24:39.032Z,89.97
2022-10-24T12:27:41.761Z,89.67
2022-10-24T12:30:44.066Z,89.46
2022-10-24T12:33:48.160Z,89.58
2022-10-24T12:37:05.895Z,89.63
2022-10-24T12:40:45.531Z,89.68
2022-10-24T12:43:50.941Z,89.79
2022-10-24T12:46:54.125Z,89.49
2022-10-24T12:49:56.875Z,89.47
2022-10-24T12:53:04.952Z,89.51
2022-10-24T12:56:13.503Z,89.49
2022-10-24T12:59:46.193Z,89.50
2022-10-24T13:02:55.565Z,89.20
2022-10-24T13:06:09.385Z,89.11
2022-10-24T13:09:30.391Z,89.49
2022-10-24T13:12:40.575Z,88.99
2022-10-24T13:15:51.278Z,88.99
2022-10-24T13:19:10.937Z,89.04
2022-10-24T13:22:30.057Z,88.33
2022-10-24T13:25:36.034Z,88.25
2022-10-24T13:28:40.502Z,88.50
2022-10-24T13:31:45.367Z,88.04
2022-10-24T13:34:50.099Z,87.67
2022-10-24T13:37:59.164Z,87.38
2022-10-24T13:41:03.198Z,87.39
2022-10-24T13:44:33.176Z,87.11
2022-10-24T13:47:43.622Z,86.96
2022-10-24T13:51:04.194Z,87.16
2022-10-24T13:54:15.218Z,87.24
2022-10-24T13:57:24.281Z,87.27
2022-10-24T14:00:32.286Z,87.35
2022-10-24T14:03:34.824Z,87.67
2022-10-24T14:06:36.946Z,87.73
2022-10-24T14:09:43.288Z,88.17
2022-10-24T14:12:45.974Z,88.39
2022-10-24T14:15:59.658Z,88.26
2022-10-24T14:19:15.418Z,88.36
2022-10-24T14:22:29.417Z,88.16
2022-10-24T14:25:36.774Z,88.38
2022-10-24T14:29:05.351Z,88.28
2022-10-24T14:32:08.232Z,88.09
2022-10-24T14:35:14.189Z,88.15
2022-10-24T14:38:17.175Z,88.13
2022-10-24T14:41:19.420Z,88.27
2022-10-24T14:44:22.675Z,88.20
2022-10-24T14:47:33.138Z,88.03
2022-10-24T14:50:36.644Z,87.96
2022-10-24T14:53:39.632Z,88.09
2022-10-24T14:56:41.445Z,88.03
2022-10-24T14:59:45.286Z,88.11
2022-10-24T15:02:48.077Z,87.83
2022-10-24T15:06:09.317Z,88.01
2022-10-24T15:09:11.062Z,88.21
2022-10-24T15:12:13.389Z,88.25
2022-10-24T15:15:22.492Z,88.42
2022-10-24T15:18:26.234Z,88.49
2022-10-24T15:21:33.063Z,88.49
2022-10-24T15:24:34.812Z,88.61
2022-10-24T15:27:41.971Z,88.84
2022-10-24T15:30:43.619Z,88.78
2022-10-24T15:33:45.813Z,88.88
2022-10-24T15:36:49.485Z,89.11
2022-10-24T15:39:53.022Z,89.20
2022-10-24T15:42:54.934Z,89.26
2022-10-24T15:45:57.792Z,89.31
2022-10-24T15:48:59.735Z,89.55
2022-10-24T15:52:01.482Z,89.81
2022-10-24T15:55:03.266Z,90.30
2022-10-24T15:58:11.240Z,90.60
2022-10-24T16:01:23.483Z,90.66
2022-10-24T16:04:25.370Z,90.88
2022-10-24T16:07:27.097Z,90.69
2022-10-24T16:10:28.773Z,90.58
2022-10-24T16:13:30.645Z,90.48
2022-10-24T16:16:32.375Z,90.51
2022-10-24T16:19:34.146Z,90.90
2022-10-24T16:22:35.946Z,90.91
2022-10-24T16:25:38.529Z,90.95
2022-10-24T16:28:40.426Z,91.40
2022-10-24T16:31:42.875Z,91.85
2022-10-24T16:34:49.043Z,91.92
2022-10-24T16:37:52.209Z,92.19
2022-10-24T16:40:54.366Z,92.54
2022-10-24T16:43:57.092Z,92.98
2022-10-24T16:46:58.924Z,93.34
2022-10-24T16:50:00.701Z,93.74
2022-10-24T16:53:05.020Z,93.90
2022-10-24T16:56:09.538Z,94.26
2022-10-24T16:59:14.592Z,94.20
2022-10-24T17:02:18.188Z,94.42
2022-10-24T17:05:22.491Z,95.13
2022-10-24T17:08:24.305Z,95.45
2022-10-24T17:11:44.450Z,94.71
2022-10-24T17:14:47.357Z,93.58
2022-10-24T17:17:49.405Z,92.26
2022-10-24T17:20:51.713Z,92.18
2022-10-24T17:23:54.214Z,92.84
2022-10-24T17:26:56.094Z,92.51
2022-10-24T17:29:58.087Z,92.69
2022-10-24T17:33:00.479Z,93.23
2022-10-24T17:36:02.501Z,93.20
2022-10-24T17:39:10.398Z,93.86
2022-10-24T17:42:12.527Z,93.97
2022-10-24T17:45:22.738Z,93.93
2022-10-24T17:48:24.759Z,93.83
2022-10-24T17:51:27.499Z,93.35
2022-10-24T17:54:29.200Z,93.99
2022-10-24T17:57:31.177Z,93.84
2022-10-24T18:00:33.326Z,93.67
2022-10-24T18:03:35.181Z,94.58
2022-10-24T18:06:42.997Z,94.96
2022-10-24T18:09:45.200Z,95.22
2022-10-24T18:12:47.312Z,94.70
2022-10-24T18:15:49.267Z,95.28
2022-10-24T18:18:51.073Z,95.59
2022-10-24T18:21:52.888Z,95.82
2022-10-24T18:24:54.655Z,96.09
2022-10-24T18:27:57.046Z,95.91
2022-10-24T18:30:58.749Z,96.38
2022-10-24T18:34:06.088Z,96.97
2022-10-24T18:37:10.022Z,96.86
2022-10-24T18:40:12.576Z,96.73
2022-10-24T18:43:14.609Z,96.60
2022-10-24T18:46:16.742Z,96.15
2022-10-24T18:49:37.322Z,95.49
2022-10-24T18:53:01.041Z,95.55
2022-10-24T18:56:03.170Z,95.34
2022-10-24T18:59:12.194Z,95.48
2022-10-24T19:02:26.515Z,95.68
2022-10-24T19:05:41.523Z,96.02
2022-10-24T19:08:43.378Z,96.43
2022-10-24T19:11:45.655Z,96.91
2022-10-24T19:14:47.731Z,96.67
2022-10-24T19:17:51.089Z,96.50
2022-10-24T19:20:53.060Z,96.58
2022-10-24T19:23:54.847Z,95.70
2022-10-24T19:26:56.584Z,96.01
2022-10-24T19:29:58.567Z,96.29
2022-10-24T19:33:00.324Z,96.48
2022-10-24T19:36:03.223Z,97.20
2022-10-24T19:39:05.333Z,96.71
2022-10-24T19:42:07.571Z,95.01
2022-10-24T19:45:09.823Z,94.96
2022-10-24T19:48:14.522Z,95.49
2022-10-24T19:51:18.289Z,95.94
2022-10-24T19:54:20.250Z,96.39
2022-10-24T19:57:21.966Z,96.90
2022-10-24T20:00:25.423Z,97.47
2022-10-24T20:03:27.241Z,97.64
2022-10-24T20:06:29.258Z,97.28
2022-10-24T20:09:31.014Z,97.01
2022-10-24T20:12:32.875Z,97.23
2022-10-24T20:15:34.603Z,97.65
2022-10-24T20:18:37.688Z,97.75
2022-10-24T20:21:39.434Z,98.02
2022-10-24T20:24:41.264Z,97.95
2022-10-24T20:27:43.518Z,98.47
2022-10-24T20:30:46.984Z,97.88
2022-10-24T20:33:49.096Z,97.96
2022-10-24T20:36:50.899Z,98.40
2022-10-24T20:39:52.597Z,97.92
2022-10-24T20:42:54.562Z,97.36
2022-10-24T20:45:56.539Z,97.36
2022-10-24T20:48:58.355Z,97.27
2022-10-24T20:52:00.521Z,97.25
2022-10-24T20:55:07.606Z,98.20
2022-10-24T20:58:16.566Z,98.84
2022-10-24T21:01:23.423Z,99.06
2022-10-24T21:04:25.361Z,99.32
2022-10-24T21:07:27.415Z,99.25
2022-10-24T21:10:29.194Z,99.57
2022-10-24T21:13:30.923Z,99.34
2022-10-24T21:16:34.036Z,99.33
2022-10-24T21:19:35.685Z,99.75
2022-10-24T21:22:37.639Z,100.00
2022-10-24T21:25:39.758Z,99.98
2022-10-24T21:28:41.842Z,100.00
2022-10-24T21:31:43.613Z,100.00
2022-10-24T21:34:45.287Z,99.99
2022-10-24T21:37:47.126Z,100.00
2022-10-24T21:40:49.300Z,100.00
2022-10-24T21:43:52.207Z,100.00
2022-10-24T21:46:54.595Z,100.00
2022-10-24T21:49:56.309Z,100.00
2022-10-24T21:52:58.121Z,100.00
2022-10-24T21:56:08.876Z,100.00
2022-10-24T21:59:16.354Z,100.00
2022-10-24T22:02:18.592Z,100.00
2022-10-24T22:05:20.600Z,100.00
2022-10-24T22:08:23.577Z,100.00
2022-10-24T22:11:27.638Z,100.00
2022-10-24T22:14:29.351Z,100.00
2022-10-24T22:17:31.074Z,100.00
2022-10-24T22:20:35.832Z,100.00
2022-10-24T22:23:37.808Z,99.94
2022-10-24T22:26:40.584Z,99.90
2022-10-24T22:29:42.278Z,99.98
2022-10-24T22:32:44.512Z,100.00
2022-10-24T22:35:54.506Z,100.00
2022-10-24T22:38:57.334Z,100.00
2022-10-24T22:41:59.365Z,100.00
2022-10-24T22:45:01.324Z,100.00
2022-10-24T22:48:11.780Z,100.00
2022-10-24T22:51:14.652Z,100.00
2022-10-24T22:54:23.792Z,100.00
2022-10-24T22:57:25.816Z,100.00
2022-10-24T23:00:27.940Z,100.00
2022-10-24T23:03:53.826Z,100.00
2022-10-24T23:07:35.836Z,100.00
2022-10-24T23:10:39.795Z,100.00
2022-10-24T23:13:42.828Z,100.00
2022-10-24T23:16:58.983Z,100.00
2022-10-24T23:20:01.174Z,100.00
2022-10-24T23:23:16.498Z,100.00
2022-10-24T23:26:31.601Z,100.00
2022-10-24T23:29:35.458Z,100.00
2022-10-24T23:32:38.668Z,100.00
2022-10-24T23:35:40.806Z,100.00
2022-10-24T23:38:42.870Z,100.00
2022-10-24T23:41:45.175Z,100.00
2022-10-24T23:44:47.342Z,100.00
2022-10-24T23:48:40.239Z,100.00
2022-10-24T23:51:47.383Z,100.00
2022-10-24T23:54:49.459Z,100.00
2022-10-24T23:57:51.157Z,100.00
